Time,TemperatureF,DewpointF,PressureIn,WindDirection,WindDirectionDegrees,WindSpeedMPH,WindSpeedGustMPH,Humidity,HourlyPrecipIn,Conditions,Clouds,dailyrainin,SoftwareType,DateUTC
2013-10-15 00:02:00,49.8,49.3,29.66,WNW,292,0.0,5.0,98,0.00,,,0.13,meteohub,2013-10-14 23:02:00,
2013-10-15 00:07:00,49.8,49.3,29.66,WNW,292,0.0,4.0,98,0.00,,,0.00,meteohub,2013-10-14 23:07:00,
2013-10-15 00:12:00,49.6,49.1,29.66,NW,315,0.0,4.0,98,0.00,,,0.00,meteohub,2013-10-14 23:12:00,
2013-10-15 00:17:00,49.5,48.9,29.66,West,270,3.0,4.0,98,0.00,,,0.00,meteohub,2013-10-14 23:17:00,
2013-10-15 00:22:00,49.5,48.9,29.66,WNW,292,0.0,4.0,98,0.00,,,0.00,meteohub,2013-10-14 23:22:00,
2013-10-15 00:27:00,49.5,48.9,29.66,WNW,292,3.0,4.0,98,0.00,,,0.00,meteohub,2013-10-14 23:27:00,
2013-10-15 00:32:00,49.5,48.9,29.66,WSW,248,0.0,3.0,98,0.00,,,0.00,meteohub,2013-10-14 23:32:00,
2013-10-15 00:37:00,49.3,48.7,29.66,West,270,0.0,3.0,98,0.00,,,0.00,meteohub,2013-10-14 23:37:00,
2013-10-15 00:42:00,49.3,48.7,29.66,WNW,292,0.0,4.0,98,0.00,,,0.00,meteohub,2013-10-14 23:42:00,
2013-10-15 00:47:00,49.3,48.7,29.66,WSW,248,0.0,4.0,98,0.00,,,0.00,meteohub,2013-10-14 23:47:00,
2013-10-15 00:52:00,49.3,48.7,29.66,West,270,0.0,5.0,98,0.00,,,0.00,meteohub,2013-10-14 23:52:00,
2013-10-15 00:57:00,49.3,48.7,29.69,West,270,0.0,5.0,98,0.00,,,0.00,meteohub,2013-10-14 23:57:00,
2013-10-15 01:02:00,49.3,48.7,29.69,WNW,292,0.0,5.0,98,0.00,,,0.00,meteohub,2013-10-15 00:02:00,
2013-10-15 01:07:00,49.1,48.6,29.69,NNW,338,0.0,5.0,98,0.00,,,0.00,meteohub,2013-10-15 00:07:00,
2013-10-15 01:13:00,48.9,48.4,29.66,West,270,0.0,5.0,98,0.00,,,0.00,meteohub,2013-10-15 00:13:00,
2013-10-15 01:19:00,48.7,48.2,29.66,WNW,292,4.0,4.0,98,0.00,,,0.00,meteohub,2013-10-15 00:19:00,
2013-10-15 01:25:00,48.6,48.0,29.69,West,270,0.0,4.0,98,0.00,,,0.00,meteohub,2013-10-15 00:25:00,
2013-10-15 01:31:00,48.4,47.8,29.69,WNW,292,0.0,4.0,98,0.00,,,0.00,meteohub,2013-10-15 00:31:00,
2013-10-15 01:37:00,48.2,47.7,29.69,WNW,292,0.0,3.0,98,0.00,,,0.00,meteohub,2013-10-15 00:37:00,
2013-10-15 01:42:00,48.2,47.7,29.69,West,270,0.0,3.0,98,0.00,,,0.00,meteohub,2013-10-15 00:42:00,
2013-10-15 01:47:00,48.4,47.8,29.69,WNW,292,0.0,3.0,98,0.00,,,0.00,meteohub,2013-10-15 00:47:00,
2013-10-15 01:52:00,48.4,47.8,29.69,WNW,292,0.0,3.0,98,0.00,,,0.00,meteohub,2013-10-15 00:52:00,
2013-10-15 01:57:00,48.4,47.8,29.69,WNW,292,0.0,3.0,98,0.00,,,0.00,meteohub,2013-10-15 00:57:00,
2013-10-15 02:02:00,48.6,48.0,29.69,WNW,292,0.0,2.0,98,0.00,,,0.00,meteohub,2013-10-15 01:02:00,
2013-10-15 02:07:00,48.7,48.2,29.69,West,270,0.0,3.0,98,0.00,,,0.00,meteohub,2013-10-15 01:07:00,
2013-10-15 02:12:00,48.7,48.2,29.69,West,270,2.0,3.0,98,0.00,,,0.00,meteohub,2013-10-15 01:12:00,
2013-10-15 02:17:00,48.7,48.2,29.69,WNW,292,0.0,4.0,98,0.00,,,0.00,meteohub,2013-10-15 01:17:00,
2013-10-15 02:22:00,48.7,48.2,29.69,West,270,0.0,4.0,98,0.00,,,0.00,meteohub,2013-10-15 01:22:00,
2013-10-15 02:27:00,48.7,48.2,29.69,WNW,292,0.0,4.0,98,0.00,,,0.00,meteohub,2013-10-15 01:27:00,
2013-10-15 02:32:00,48.7,48.2,29.69,WNW,292,3.0,4.0,98,0.00,,,0.00,meteohub,2013-10-15 01:32:00,
2013-10-15 02:37:00,48.7,48.2,29.69,WNW,292,0.0,4.0,98,0.00,,,0.00,meteohub,2013-10-15 01:37:00,
2013-10-15 02:42:00,48.7,48.2,29.69,WNW,292,2.0,4.0,98,0.00,,,0.00,meteohub,2013-10-15 01:42:00,
2013-10-15 02:47:00,48.6,48.0,29.69,WNW,292,5.0,6.0,98,0.00,,,0.00,meteohub,2013-10-15 01:47:00,
2013-10-15 02:52:00,48.4,47.8,29.69,North,0,0.0,6.0,98,0.00,,,0.00,meteohub,2013-10-15 01:52:00,
2013-10-15 02:57:00,48.0,47.5,29.69,West,270,0.0,6.0,98,0.00,,,0.00,meteohub,2013-10-15 01:57:00,
2013-10-15 03:00:00,47.8,47.3,29.69,NW,315,0.0,6.0,98,0.00,,,0.00,meteohub,2013-10-15 02:00:00,
2013-10-15 03:02:00,47.8,47.3,29.69,West,270,0.0,6.0,98,0.00,,,0.00,meteohub,2013-10-15 02:02:00,
2013-10-15 03:07:00,47.5,46.9,29.69,North,0,0.0,5.0,98,0.00,,,0.00,meteohub,2013-10-15 02:07:00,
2013-10-15 03:12:00,47.5,46.9,29.69,NNE,22,0.0,3.0,98,0.00,,,0.00,meteohub,2013-10-15 02:12:00,
2013-10-15 03:17:00,47.7,47.1,29.69,NW,315,0.0,4.0,98,0.00,,,0.00,meteohub,2013-10-15 02:17:00,
2013-10-15 03:22:00,47.8,47.3,29.69,WSW,248,0.0,4.0,98,0.00,,,0.00,meteohub,2013-10-15 02:22:00,
2013-10-15 03:27:00,48.0,47.5,29.69,WSW,248,0.0,4.0,98,0.00,,,0.00,meteohub,2013-10-15 02:27:00,
2013-10-15 03:32:00,47.8,47.3,29.69,WNW,292,0.0,4.0,98,0.00,,,0.00,meteohub,2013-10-15 02:32:00,
2013-10-15 03:37:00,47.7,47.1,29.69,South,180,0.0,4.0,98,0.00,,,0.00,meteohub,2013-10-15 02:37:00,
2013-10-15 03:43:00,47.5,46.9,29.69,NW,315,0.0,4.0,98,0.00,,,0.00,meteohub,2013-10-15 02:43:00,
2013-10-15 03:49:00,47.5,46.9,29.69,West,270,0.0,0.0,98,0.00,,,0.00,meteohub,2013-10-15 02:49:00,
2013-10-15 03:55:00,47.5,46.9,29.66,West,270,0.0,2.0,98,0.00,,,0.00,meteohub,2013-10-15 02:55:00,
2013-10-15 04:01:00,47.5,46.9,29.66,South,180,0.0,2.0,98,0.00,,,0.00,meteohub,2013-10-15 03:01:00,
2013-10-15 04:07:00,47.5,46.9,29.66,WNW,292,0.0,0.0,98,0.00,,,0.00,meteohub,2013-10-15 03:07:00,
2013-10-15 04:12:00,47.3,46.8,29.69,WNW,292,0.0,0.0,98,0.00,,,0.00,meteohub,2013-10-15 03:12:00,
2013-10-15 04:17:00,47.5,46.9,29.69,WNW,292,0.0,0.0,98,0.00,,,0.00,meteohub,2013-10-15 03:17:00,
2013-10-15 04:23:00,47.8,47.3,29.69,WSW,248,0.0,0.0,98,0.00,,,0.00,meteohub,2013-10-15 03:23:00,
2013-10-15 04:29:00,48.0,47.5,29.69,ENE,68,0.0,0.0,98,0.00,,,0.00,meteohub,2013-10-15 03:29:00,
2013-10-15 04:35:00,48.2,47.7,29.69,WNW,292,0.0,3.0,98,0.00,,,0.00,meteohub,2013-10-15 03:35:00,
2013-10-15 04:41:00,48.2,47.7,29.69,NNW,338,0.0,3.0,98,0.00,,,0.00,meteohub,2013-10-15 03:41:00,
2013-10-15 04:47:00,48.4,47.8,29.69,SW,225,3.0,3.0,98,0.00,,,0.00,meteohub,2013-10-15 03:47:00,
2013-10-15 04:52:00,48.4,47.8,29.69,WNW,292,0.0,3.0,98,0.00,,,0.00,meteohub,2013-10-15 03:52:00,
2013-10-15 04:57:00,48.6,48.0,29.69,WSW,248,0.0,3.0,98,0.00,,,0.00,meteohub,2013-10-15 03:57:00,
2013-10-15 05:01:00,48.6,48.0,29.69,West,270,0.0,3.0,98,0.00,,,0.00,meteohub,2013-10-15 04:01:00,
2013-10-15 05:03:00,48.6,48.0,29.69,WNW,292,0.0,3.0,98,0.00,,,0.00,meteohub,2013-10-15 04:03:00,
2013-10-15 05:07:00,48.6,48.0,29.69,WNW,292,0.0,3.0,98,0.00,,,0.00,meteohub,2013-10-15 04:07:00,
2013-10-15 05:09:00,48.6,48.0,29.69,SW,225,0.0,3.0,98,0.00,,,0.00,meteohub,2013-10-15 04:09:00,
2013-10-15 05:11:00,48.6,48.0,29.69,WNW,292,0.0,4.0,98,0.00,,,0.00,meteohub,2013-10-15 04:11:00,
2013-10-15 05:13:00,48.7,48.2,29.69,WNW,292,0.0,4.0,98,0.00,,,0.00,meteohub,2013-10-15 04:13:00,
2013-10-15 05:19:00,48.7,48.2,29.69,WNW,292,0.0,4.0,98,0.00,,,0.00,meteohub,2013-10-15 04:19:00,
2013-10-15 05:26:00,48.7,48.2,29.69,NW,315,0.0,3.0,98,0.00,,,0.00,meteohub,2013-10-15 04:26:00,
2013-10-15 05:32:00,48.7,48.2,29.69,WNW,292,3.0,3.0,98,0.00,,,0.00,meteohub,2013-10-15 04:32:00,
2013-10-15 05:37:00,48.9,48.4,29.69,NNW,338,0.0,4.0,98,0.00,,,0.00,meteohub,2013-10-15 04:37:00,
2013-10-15 05:42:00,48.9,48.4,29.69,WNW,292,2.0,4.0,98,0.00,,,0.00,meteohub,2013-10-15 04:42:00,
2013-10-15 05:48:00,48.9,48.4,29.69,West,270,0.0,4.0,98,0.00,,,0.00,meteohub,2013-10-15 04:48:00,
2013-10-15 05:54:00,49.1,48.6,29.69,West,270,0.0,5.0,98,0.00,,,0.00,meteohub,2013-10-15 04:54:00,
2013-10-15 06:00:00,48.9,48.4,29.69,West,270,0.0,5.0,98,0.00,,,0.00,meteohub,2013-10-15 05:00:00,
2013-10-15 06:06:00,48.9,48.4,29.69,West,270,0.0,0.0,98,0.00,,,0.00,meteohub,2013-10-15 05:06:00,
2013-10-15 06:12:00,48.9,48.4,29.69,West,270,0.0,0.0,98,0.00,,,0.00,meteohub,2013-10-15 05:12:00,
2013-10-15 06:17:00,48.9,48.4,29.69,SSE,158,0.0,0.0,98,0.00,,,0.00,meteohub,2013-10-15 05:17:00,
2013-10-15 06:22:00,48.9,48.4,29.69,SW,225,0.0,0.0,98,0.00,,,0.00,meteohub,2013-10-15 05:22:00,
2013-10-15 06:27:00,48.9,48.4,29.69,NW,315,0.0,0.0,98,0.00,,,0.00,meteohub,2013-10-15 05:27:00,
2013-10-15 06:32:00,48.9,48.4,29.69,NW,315,0.0,0.0,98,0.00,,,0.00,meteohub,2013-10-15 05:32:00,
2013-10-15 06:37:00,48.9,48.4,29.69,WNW,292,0.0,0.0,98,0.00,,,0.00,meteohub,2013-10-15 05:37:00,
2013-10-15 06:42:00,48.9,48.4,29.69,West,270,0.0,0.0,98,0.00,,,0.00,meteohub,2013-10-15 05:42:00,
2013-10-15 06:47:00,48.9,48.4,29.69,North,0,0.0,0.0,98,0.00,,,0.00,meteohub,2013-10-15 05:47:00,
2013-10-15 06:52:00,49.1,48.6,29.69,NW,315,0.0,0.0,98,0.00,,,0.00,meteohub,2013-10-15 05:52:00,
2013-10-15 06:57:00,49.1,48.6,29.72,West,270,0.0,2.0,98,0.00,,,0.00,meteohub,2013-10-15 05:57:00,
2013-10-15 07:02:00,49.1,48.6,29.72,West,270,0.0,2.0,98,0.00,,,0.00,meteohub,2013-10-15 06:02:00,
2013-10-15 07:07:00,49.1,48.6,29.72,WNW,292,0.0,2.0,98,0.00,,,0.00,meteohub,2013-10-15 06:07:00,
2013-10-15 07:12:00,48.9,48.4,29.69,WNW,292,0.0,0.0,98,0.00,,,0.00,meteohub,2013-10-15 06:12:00,
2013-10-15 07:17:00,48.7,48.2,29.69,SW,225,0.0,0.0,98,0.00,,,0.00,meteohub,2013-10-15 06:17:00,
2013-10-15 07:22:00,48.7,48.2,29.69,NW,315,0.0,4.0,98,0.00,,,0.00,meteohub,2013-10-15 06:22:00,
2013-10-15 07:27:00,48.7,48.2,29.69,WNW,292,0.0,4.0,98,0.00,,,0.00,meteohub,2013-10-15 06:27:00,
2013-10-15 07:32:00,48.7,48.2,29.69,WNW,292,0.0,3.0,98,0.00,,,0.00,meteohub,2013-10-15 06:32:00,
2013-10-15 07:37:00,48.7,48.2,29.69,WNW,292,0.0,0.0,98,0.00,,,0.00,meteohub,2013-10-15 06:37:00,
2013-10-15 07:42:00,48.9,48.4,29.69,WNW,292,0.0,0.0,98,0.00,,,0.00,meteohub,2013-10-15 06:42:00,
2013-10-15 07:47:00,48.9,48.4,29.69,WSW,248,0.0,0.0,98,0.00,,,0.00,meteohub,2013-10-15 06:47:00,
2013-10-15 07:52:00,48.9,48.4,29.69,WSW,248,0.0,0.0,98,0.00,,,0.00,meteohub,2013-10-15 06:52:00,
2013-10-15 07:57:00,48.7,48.2,29.69,WSW,248,0.0,0.0,98,0.00,,,0.00,meteohub,2013-10-15 06:57:00,
2013-10-15 08:02:00,48.2,47.7,29.69,WSW,248,0.0,0.0,98,0.00,,,0.00,meteohub,2013-10-15 07:02:00,
2013-10-15 08:07:00,48.0,47.5,29.69,WSW,248,0.0,0.0,98,0.00,,,0.00,meteohub,2013-10-15 07:07:00,
2013-10-15 08:12:00,48.0,47.5,29.69,WSW,248,0.0,0.0,98,0.00,,,0.00,meteohub,2013-10-15 07:12:00,
2013-10-15 08:17:00,48.2,47.7,29.69,WSW,248,0.0,0.0,98,0.00,,,0.00,meteohub,2013-10-15 07:17:00,
2013-10-15 08:22:00,48.2,47.7,29.69,WSW,248,0.0,2.0,98,0.00,,,0.00,meteohub,2013-10-15 07:22:00,
2013-10-15 08:27:00,48.4,47.8,29.69,SW,225,0.0,2.0,98,0.00,,,0.00,meteohub,2013-10-15 07:27:00,
2013-10-15 08:32:00,48.7,48.2,29.69,SW,225,0.0,2.0,98,0.00,,,0.00,meteohub,2013-10-15 07:32:00,
2013-10-15 08:37:00,49.1,48.6,29.69,West,270,0.0,0.0,98,0.00,,,0.00,meteohub,2013-10-15 07:37:00,
2013-10-15 08:42:00,49.5,48.9,29.72,West,270,0.0,0.0,98,0.00,,,0.00,meteohub,2013-10-15 07:42:00,
2013-10-15 08:47:00,49.6,49.1,29.72,WSW,248,0.0,3.0,98,0.00,,,0.00,meteohub,2013-10-15 07:47:00,
2013-10-15 08:52:00,49.8,49.3,29.72,NNW,338,0.0,3.0,98,0.00,,,0.00,meteohub,2013-10-15 07:52:00,
2013-10-15 08:57:00,49.8,49.3,29.72,West,270,0.0,3.0,98,0.00,,,0.00,meteohub,2013-10-15 07:57:00,
2013-10-15 09:02:00,49.8,49.3,29.72,NNW,338,0.0,4.0,98,0.00,,,0.00,meteohub,2013-10-15 08:02:00,
2013-10-15 09:07:00,49.8,49.3,29.72,WSW,248,0.0,4.0,98,0.00,,,0.00,meteohub,2013-10-15 08:07:00,
2013-10-15 09:12:00,50.0,49.5,29.72,NNW,338,0.0,4.0,98,0.00,,,0.00,meteohub,2013-10-15 08:12:00,
2013-10-15 09:17:00,50.2,49.6,29.72,West,270,0.0,4.0,98,0.00,,,0.00,meteohub,2013-10-15 08:17:00,
2013-10-15 09:22:00,50.2,49.6,29.72,WSW,248,0.0,4.0,98,-99.99,,,0.00,meteohub,2013-10-15 08:22:00,
2013-10-15 09:27:00,50.2,49.6,29.72,West,270,3.0,4.0,98,-99.99,,,0.00,meteohub,2013-10-15 08:27:00,
2013-10-15 09:32:00,50.0,49.5,29.72,NW,315,0.0,5.0,98,0.00,,,0.00,meteohub,2013-10-15 08:32:00,
2013-10-15 09:37:00,50.2,49.6,29.72,WNW,292,0.0,5.0,98,0.00,,,0.00,meteohub,2013-10-15 08:37:00,
2013-10-15 09:42:00,50.2,49.6,29.72,WNW,292,0.0,5.0,98,0.00,,,0.00,meteohub,2013-10-15 08:42:00,
2013-10-15 09:47:00,50.5,50.0,29.72,West,270,0.0,4.0,98,0.00,,,0.00,meteohub,2013-10-15 08:47:00,
2013-10-15 09:52:00,50.7,50.2,29.72,WNW,292,0.0,4.0,98,0.00,,,0.00,meteohub,2013-10-15 08:52:00,
2013-10-15 09:57:00,50.9,50.4,29.72,WNW,292,0.0,4.0,98,0.00,,,0.00,meteohub,2013-10-15 08:57:00,
2013-10-15 10:02:00,50.7,50.2,29.72,SSE,158,0.0,5.0,98,0.00,,,0.00,meteohub,2013-10-15 09:02:00,
2013-10-15 10:05:00,50.7,50.2,29.72,SW,225,0.0,5.0,98,0.00,,,0.00,meteohub,2013-10-15 09:05:00,
2013-10-15 10:12:00,50.7,49.8,29.72,NW,315,2.0,4.0,97,0.00,,,0.00,meteohub,2013-10-15 09:12:00,
2013-10-15 10:17:00,50.7,49.8,29.72,WNW,292,3.0,4.0,97,0.00,,,0.00,meteohub,2013-10-15 09:17:00,
2013-10-15 10:22:00,50.7,49.6,29.72,WNW,292,2.0,4.0,96,0.00,,,0.00,meteohub,2013-10-15 09:22:00,
2013-10-15 10:27:00,50.5,49.5,29.72,WNW,292,2.0,4.0,96,0.00,,,0.00,meteohub,2013-10-15 09:27:00,
2013-10-15 10:32:00,50.7,49.3,29.72,West,270,2.0,4.0,95,0.00,,,0.00,meteohub,2013-10-15 09:32:00,
2013-10-15 10:37:00,50.7,49.1,29.72,NNW,338,3.0,4.0,94,0.00,,,0.00,meteohub,2013-10-15 09:37:00,
2013-10-15 10:42:00,50.9,49.3,29.72,NNW,338,3.0,4.0,94,0.00,,,0.00,meteohub,2013-10-15 09:42:00,
2013-10-15 10:47:00,50.9,48.7,29.72,WNW,292,3.0,4.0,92,0.00,,,0.00,meteohub,2013-10-15 09:47:00,
2013-10-15 10:52:00,51.1,48.6,29.72,North,0,4.0,5.0,91,0.00,,,0.00,meteohub,2013-10-15 09:52:00,
2013-10-15 10:57:00,50.7,47.7,29.75,West,270,0.0,5.0,89,0.00,,,0.00,meteohub,2013-10-15 09:57:00,
2013-10-15 11:02:00,50.7,46.9,29.75,NW,315,0.0,5.0,87,0.00,,,0.00,meteohub,2013-10-15 10:02:00,
2013-10-15 11:07:00,51.1,47.3,29.75,West,270,0.0,5.0,87,0.00,,,0.00,meteohub,2013-10-15 10:07:00,
2013-10-15 11:12:00,51.4,47.5,29.72,NW,315,3.0,5.0,86,0.00,,,0.00,meteohub,2013-10-15 10:12:00,
2013-10-15 11:17:00,52.0,47.7,29.72,NNW,338,0.0,4.0,85,0.00,,,0.00,meteohub,2013-10-15 10:17:00,
2013-10-15 11:22:00,52.2,47.5,29.72,West,270,0.0,4.0,84,0.00,,,0.00,meteohub,2013-10-15 10:22:00,
2013-10-15 11:27:00,52.5,47.5,29.75,West,270,0.0,4.0,83,0.00,,,0.00,meteohub,2013-10-15 10:27:00,
2013-10-15 11:32:00,53.4,47.7,29.75,NW,315,0.0,4.0,81,0.00,,,0.00,meteohub,2013-10-15 10:32:00,
2013-10-15 11:37:00,53.8,47.5,29.75,West,270,6.0,6.0,79,0.00,,,0.00,meteohub,2013-10-15 10:37:00,
2013-10-15 11:42:00,54.0,46.2,29.75,NW,315,5.0,6.0,75,0.00,,,0.00,meteohub,2013-10-15 10:42:00,
2013-10-15 11:47:00,54.7,46.6,29.75,WNW,292,3.0,6.0,74,0.00,,,0.00,meteohub,2013-10-15 10:47:00,
2013-10-15 11:52:00,55.0,46.2,29.75,NNE,22,0.0,6.0,72,0.00,,,0.00,meteohub,2013-10-15 10:52:00,
2013-10-15 11:57:00,54.9,45.7,29.75,West,270,0.0,5.0,71,0.00,,,0.00,meteohub,2013-10-15 10:57:00,
2013-10-15 12:02:00,55.4,46.2,29.75,West,270,3.0,5.0,71,0.00,,,0.00,meteohub,2013-10-15 11:02:00,
2013-10-15 12:07:00,56.3,46.6,29.75,NNW,338,0.0,4.0,70,0.00,,,0.00,meteohub,2013-10-15 11:07:00,
2013-10-15 12:12:00,57.2,46.4,29.75,WSW,248,0.0,5.0,67,0.00,,,0.00,meteohub,2013-10-15 11:12:00,
2013-10-15 12:17:00,56.7,44.6,29.75,NNW,338,4.0,5.0,64,0.00,,,0.00,meteohub,2013-10-15 11:17:00,
2013-10-15 12:22:00,56.3,44.2,29.75,North,0,0.0,6.0,64,0.00,,,0.00,meteohub,2013-10-15 11:22:00,
2013-10-15 12:27:00,55.8,44.6,29.75,NNW,338,0.0,6.0,66,0.00,,,0.00,meteohub,2013-10-15 11:27:00,
2013-10-15 12:32:00,54.9,44.1,29.75,SE,135,3.0,4.0,67,0.00,,,0.00,meteohub,2013-10-15 11:32:00,
2013-10-15 12:37:00,54.3,44.1,29.75,NW,315,2.0,6.0,68,0.00,,,0.00,meteohub,2013-10-15 11:37:00,
2013-10-15 12:42:00,54.7,45.5,29.75,NE,45,2.0,8.0,71,0.00,,,0.00,meteohub,2013-10-15 11:42:00,
2013-10-15 12:47:00,55.8,46.9,29.75,North,0,3.0,8.0,72,0.00,,,0.00,meteohub,2013-10-15 11:47:00,
2013-10-15 12:52:00,55.9,46.4,29.75,WNW,292,3.0,8.0,70,0.00,,,0.00,meteohub,2013-10-15 11:52:00,
2013-10-15 12:57:00,55.2,45.3,29.75,WNW,292,0.0,5.0,69,0.00,,,0.00,meteohub,2013-10-15 11:57:00,
2013-10-15 13:02:00,55.2,45.3,29.75,NNE,22,4.0,5.0,69,0.00,,,0.00,meteohub,2013-10-15 12:02:00,
2013-10-15 13:07:00,56.1,46.4,29.75,West,270,3.0,5.0,70,0.00,,,0.00,meteohub,2013-10-15 12:07:00,
2013-10-15 13:12:00,56.3,45.9,29.75,NW,315,0.0,6.0,68,0.00,,,0.00,meteohub,2013-10-15 12:12:00,
2013-10-15 13:17:00,56.5,45.7,29.75,North,0,0.0,6.0,67,0.00,,,0.00,meteohub,2013-10-15 12:17:00,
2013-10-15 13:22:00,56.3,45.1,29.75,West,270,3.0,6.0,66,0.00,,,0.00,meteohub,2013-10-15 12:22:00,
2013-10-15 13:27:00,55.9,44.8,29.75,West,270,3.0,7.0,66,0.00,,,0.00,meteohub,2013-10-15 12:27:00,
2013-10-15 13:32:00,56.3,45.5,29.75,NW,315,3.0,7.0,67,0.00,,,0.00,meteohub,2013-10-15 12:32:00,
2013-10-15 13:37:00,56.5,45.3,29.75,North,0,3.0,7.0,66,0.00,,,0.00,meteohub,2013-10-15 12:37:00,
2013-10-15 13:42:00,56.3,45.1,29.75,NNE,22,0.0,4.0,66,0.00,,,0.00,meteohub,2013-10-15 12:42:00,
2013-10-15 13:47:00,55.8,44.6,29.75,NW,315,3.0,4.0,66,0.00,,,0.00,meteohub,2013-10-15 12:47:00,
2013-10-15 13:52:00,55.4,44.6,29.75,NW,315,3.0,5.0,67,0.00,,,0.00,meteohub,2013-10-15 12:52:00,
2013-10-15 13:57:00,54.7,44.8,29.75,NW,315,3.0,5.0,69,0.00,,,0.00,meteohub,2013-10-15 12:57:00,
2013-10-15 14:02:00,54.3,44.8,29.75,SSE,158,0.0,5.0,70,0.00,,,0.00,meteohub,2013-10-15 13:02:00,
2013-10-15 14:07:00,54.3,45.1,29.75,WNW,292,0.0,6.0,71,0.00,,,0.00,meteohub,2013-10-15 13:07:00,
2013-10-15 14:12:00,54.5,45.3,29.72,ESE,112,0.0,6.0,71,0.00,,,0.00,meteohub,2013-10-15 13:12:00,
2013-10-15 14:17:00,54.7,45.5,29.72,NW,315,3.0,6.0,71,0.00,,,0.00,meteohub,2013-10-15 13:17:00,
2013-10-15 14:22:00,54.7,45.5,29.72,NW,315,0.0,6.0,71,0.00,,,0.00,meteohub,2013-10-15 13:22:00,
2013-10-15 14:27:00,54.5,45.3,29.75,NW,315,0.0,6.0,71,0.00,,,0.00,meteohub,2013-10-15 13:27:00,
2013-10-15 14:32:00,54.5,45.3,29.75,NNE,22,2.0,6.0,71,0.00,,,0.00,meteohub,2013-10-15 13:32:00,
2013-10-15 14:37:00,54.7,45.9,29.75,North,0,3.0,5.0,72,0.00,,,0.00,meteohub,2013-10-15 13:37:00,
2013-10-15 14:42:00,54.7,45.9,29.75,WNW,292,3.0,4.0,72,0.00,,,0.00,meteohub,2013-10-15 13:42:00,
2013-10-15 14:47:00,54.5,45.7,29.75,North,0,0.0,7.0,72,0.00,,,0.00,meteohub,2013-10-15 13:47:00,
2013-10-15 14:52:00,54.9,46.4,29.75,North,0,2.0,7.0,73,0.00,,,0.00,meteohub,2013-10-15 13:52:00,
2013-10-15 14:57:00,55.8,46.9,29.75,NNW,338,0.0,7.0,72,0.00,,,0.00,meteohub,2013-10-15 13:57:00,
2013-10-15 15:02:00,56.5,46.8,29.75,West,270,0.0,6.0,70,0.00,,,0.00,meteohub,2013-10-15 14:02:00,
2013-10-15 15:07:00,56.7,45.9,29.75,North,0,0.0,4.0,67,0.00,,,0.00,meteohub,2013-10-15 14:07:00,
2013-10-15 15:12:00,56.1,45.0,29.75,WNW,292,0.0,4.0,66,0.00,,,0.00,meteohub,2013-10-15 14:12:00,
2013-10-15 15:17:00,56.1,45.7,29.75,WNW,292,0.0,4.0,68,0.00,,,0.00,meteohub,2013-10-15 14:17:00,
2013-10-15 15:22:00,55.6,44.8,29.75,NW,315,0.0,4.0,67,0.00,,,0.00,meteohub,2013-10-15 14:22:00,
2013-10-15 15:27:00,56.1,45.7,29.75,SW,225,0.0,4.0,68,0.00,,,0.00,meteohub,2013-10-15 14:27:00,
2013-10-15 15:32:00,57.2,46.8,29.75,WSW,248,3.0,5.0,68,0.00,,,0.00,meteohub,2013-10-15 14:32:00,
2013-10-15 15:37:00,57.7,45.7,29.75,NW,315,2.0,5.0,64,0.00,,,0.00,meteohub,2013-10-15 14:37:00,
2013-10-15 15:42:00,58.3,45.7,29.75,West,270,0.0,5.0,63,0.00,,,0.00,meteohub,2013-10-15 14:42:00,
2013-10-15 15:47:00,58.3,45.3,29.75,West,270,2.0,4.0,62,0.00,,,0.00,meteohub,2013-10-15 14:47:00,
2013-10-15 15:52:00,58.5,45.5,29.75,South,180,3.0,4.0,62,0.00,,,0.00,meteohub,2013-10-15 14:52:00,
2013-10-15 15:57:00,58.5,45.5,29.75,WNW,292,4.0,4.0,62,0.00,,,0.00,meteohub,2013-10-15 14:57:00,
2013-10-15 16:02:00,58.6,46.0,29.75,West,270,0.0,4.0,63,0.00,,,0.00,meteohub,2013-10-15 15:02:00,
2013-10-15 16:07:00,59.0,45.5,29.75,North,0,0.0,4.0,61,0.00,,,0.00,meteohub,2013-10-15 15:07:00,
2013-10-15 16:12:00,58.8,45.5,29.75,WSW,248,0.0,4.0,61,0.00,,,0.00,meteohub,2013-10-15 15:12:00,
2013-10-15 16:17:00,58.5,45.5,29.75,WNW,292,3.0,4.0,62,0.00,,,0.00,meteohub,2013-10-15 15:17:00,
2013-10-15 16:22:00,58.1,46.0,29.75,WSW,248,0.0,4.0,64,0.00,,,0.00,meteohub,2013-10-15 15:22:00,
2013-10-15 16:27:00,58.1,46.4,29.75,WNW,292,0.0,4.0,65,0.00,,,0.00,meteohub,2013-10-15 15:27:00,
2013-10-15 16:32:00,57.7,46.0,29.75,West,270,0.0,4.0,65,0.00,,,0.00,meteohub,2013-10-15 15:32:00,
2013-10-15 16:37:00,57.2,46.0,29.75,NNW,338,3.0,3.0,66,0.00,,,0.00,meteohub,2013-10-15 15:37:00,
2013-10-15 16:42:00,56.8,46.4,29.75,WSW,248,0.0,3.0,68,0.00,,,0.00,meteohub,2013-10-15 15:42:00,
2013-10-15 16:47:00,56.7,46.6,29.75,WNW,292,2.0,4.0,69,0.00,,,0.00,meteohub,2013-10-15 15:47:00,
2013-10-15 16:52:00,56.1,46.4,29.75,NNE,22,3.0,4.0,70,0.00,,,0.00,meteohub,2013-10-15 15:52:00,
2013-10-15 16:57:00,55.4,46.2,29.75,West,270,3.0,4.0,71,0.00,,,0.00,meteohub,2013-10-15 15:57:00,
2013-10-15 17:02:00,55.0,46.6,29.75,WNW,292,3.0,4.0,73,0.00,,,0.00,meteohub,2013-10-15 16:02:00,
2013-10-15 17:07:00,54.5,46.4,29.75,NW,315,0.0,6.0,74,0.00,,,0.00,meteohub,2013-10-15 16:07:00,
2013-10-15 17:12:00,54.3,46.6,29.75,NW,315,3.0,6.0,75,0.00,,,0.00,meteohub,2013-10-15 16:12:00,
2013-10-15 17:17:00,53.8,46.4,29.75,WNW,292,4.0,4.0,76,0.00,,,0.00,meteohub,2013-10-15 16:17:00,
2013-10-15 17:22:00,53.6,46.6,29.75,West,270,0.0,4.0,77,0.00,,,0.00,meteohub,2013-10-15 16:22:00,
2013-10-15 17:27:00,53.2,46.6,29.75,NW,315,0.0,4.0,78,0.00,,,0.00,meteohub,2013-10-15 16:27:00,
2013-10-15 17:32:00,53.1,46.8,29.75,WNW,292,0.0,4.0,79,0.00,,,0.00,meteohub,2013-10-15 16:32:00,
2013-10-15 17:37:00,52.7,46.8,29.75,WNW,292,0.0,4.0,80,0.00,,,0.00,meteohub,2013-10-15 16:37:00,
2013-10-15 17:42:00,52.3,46.8,29.75,WNW,292,0.0,3.0,81,0.00,,,0.00,meteohub,2013-10-15 16:42:00,
2013-10-15 17:47:00,52.0,46.6,29.75,WNW,292,0.0,2.0,82,0.00,,,0.00,meteohub,2013-10-15 16:47:00,
2013-10-15 17:52:00,51.6,46.6,29.75,WNW,292,0.0,2.0,83,0.00,,,0.00,meteohub,2013-10-15 16:52:00,
2013-10-15 17:57:00,51.3,46.6,29.75,WNW,292,0.0,0.0,84,0.00,,,0.00,meteohub,2013-10-15 16:57:00,
2013-10-15 18:02:00,50.7,46.0,29.75,WNW,292,0.0,0.0,84,0.00,,,0.00,meteohub,2013-10-15 17:02:00,
2013-10-15 18:07:00,50.4,46.0,29.75,WNW,292,0.0,0.0,85,0.00,,,0.00,meteohub,2013-10-15 17:07:00,
2013-10-15 18:12:00,49.8,45.5,29.75,WNW,292,0.0,0.0,85,0.00,,,0.00,meteohub,2013-10-15 17:12:00,
2013-10-15 18:17:00,49.3,45.0,29.75,WNW,292,0.0,0.0,85,0.00,,,0.00,meteohub,2013-10-15 17:17:00,
2013-10-15 18:22:00,48.7,44.8,29.75,WNW,292,0.0,0.0,86,0.00,,,0.00,meteohub,2013-10-15 17:22:00,
2013-10-15 18:27:00,48.0,44.1,29.75,WNW,292,0.0,0.0,86,0.00,,,0.00,meteohub,2013-10-15 17:27:00,
2013-10-15 18:32:00,47.7,43.7,29.75,WNW,292,0.0,0.0,86,0.00,,,0.00,meteohub,2013-10-15 17:32:00,
2013-10-15 18:37:00,47.3,43.7,29.75,WNW,292,0.0,0.0,87,0.00,,,0.00,meteohub,2013-10-15 17:37:00,
2013-10-15 18:42:00,46.9,43.3,29.78,WNW,292,0.0,0.0,87,0.00,,,0.00,meteohub,2013-10-15 17:42:00,
2013-10-15 18:47:00,46.8,43.2,29.78,WNW,292,0.0,0.0,87,0.00,,,0.00,meteohub,2013-10-15 17:47:00,
2013-10-15 18:52:00,46.4,43.0,29.78,WNW,292,0.0,0.0,88,0.00,,,0.00,meteohub,2013-10-15 17:52:00,
2013-10-15 18:57:00,46.2,43.2,29.78,WNW,292,0.0,0.0,89,0.00,,,0.00,meteohub,2013-10-15 17:57:00,
2013-10-15 19:02:00,46.0,43.0,29.78,WNW,292,0.0,0.0,89,0.00,,,0.00,meteohub,2013-10-15 18:02:00,
2013-10-15 19:07:00,45.9,43.2,29.78,WNW,292,0.0,0.0,90,0.00,,,0.00,meteohub,2013-10-15 18:07:00,
2013-10-15 19:12:00,46.0,43.3,29.78,WNW,292,0.0,0.0,90,0.00,,,0.00,meteohub,2013-10-15 18:12:00,
2013-10-15 19:17:00,46.0,43.5,29.78,WNW,292,0.0,0.0,91,0.00,,,0.00,meteohub,2013-10-15 18:17:00,
2013-10-15 19:22:00,45.9,43.3,29.78,WNW,292,0.0,0.0,91,0.00,,,0.00,meteohub,2013-10-15 18:22:00,
2013-10-15 19:27:00,45.9,43.7,29.78,WNW,292,0.0,0.0,92,0.00,,,0.00,meteohub,2013-10-15 18:27:00,
2013-10-15 19:32:00,45.7,43.5,29.78,WNW,292,0.0,0.0,92,0.00,,,0.00,meteohub,2013-10-15 18:32:00,
2013-10-15 19:37:00,45.7,43.7,29.78,WNW,292,0.0,0.0,93,0.00,,,0.00,meteohub,2013-10-15 18:37:00,
2013-10-15 19:42:00,45.7,43.7,29.81,WNW,292,0.0,0.0,93,0.00,,,0.00,meteohub,2013-10-15 18:42:00,
2013-10-15 19:47:00,45.5,43.5,29.81,WNW,292,0.0,0.0,93,0.00,,,0.00,meteohub,2013-10-15 18:47:00,
2013-10-15 19:52:00,45.5,43.5,29.81,WNW,292,0.0,0.0,93,0.00,,,0.00,meteohub,2013-10-15 18:52:00,
2013-10-15 19:57:00,45.3,43.7,29.81,WNW,292,0.0,0.0,94,0.00,,,0.00,meteohub,2013-10-15 18:57:00,
2013-10-15 20:02:00,45.3,43.7,29.81,WNW,292,0.0,0.0,94,0.00,,,0.00,meteohub,2013-10-15 19:02:00,
2013-10-15 20:07:00,45.5,43.9,29.81,WNW,292,0.0,0.0,94,0.00,,,0.00,meteohub,2013-10-15 19:07:00,
2013-10-15 20:12:00,46.0,44.4,29.81,WNW,292,0.0,0.0,94,0.00,,,0.00,meteohub,2013-10-15 19:12:00,
2013-10-15 20:17:00,46.4,44.8,29.81,WNW,292,0.0,0.0,94,0.00,,,0.00,meteohub,2013-10-15 19:17:00,
2013-10-15 20:22:00,46.8,45.3,29.81,WNW,292,0.0,0.0,95,0.00,,,0.00,meteohub,2013-10-15 19:22:00,
2013-10-15 20:27:00,46.9,45.5,29.81,WNW,292,0.0,0.0,95,0.00,,,0.00,meteohub,2013-10-15 19:27:00,
2013-10-15 20:32:00,46.9,45.5,29.81,WNW,292,0.0,0.0,95,0.00,,,0.00,meteohub,2013-10-15 19:32:00,
2013-10-15 20:37:00,46.9,45.5,29.81,WNW,292,0.0,0.0,95,0.00,,,0.00,meteohub,2013-10-15 19:37:00,
2013-10-15 20:42:00,46.8,45.3,29.81,WNW,292,0.0,0.0,95,0.00,,,0.00,meteohub,2013-10-15 19:42:00,
2013-10-15 20:47:00,46.6,45.1,29.81,WNW,292,0.0,0.0,95,0.00,,,0.00,meteohub,2013-10-15 19:47:00,
2013-10-15 20:52:00,46.4,45.0,29.81,WNW,292,0.0,0.0,95,0.00,,,0.00,meteohub,2013-10-15 19:52:00,
2013-10-15 20:57:00,46.0,45.0,29.81,WNW,292,0.0,0.0,96,0.00,,,0.00,meteohub,2013-10-15 19:57:00,
2013-10-15 21:02:00,45.9,44.8,29.81,WNW,292,0.0,0.0,96,0.00,,,0.00,meteohub,2013-10-15 20:02:00,
2013-10-15 21:07:00,46.0,45.0,29.81,WNW,292,0.0,0.0,96,0.00,,,0.00,meteohub,2013-10-15 20:07:00,
2013-10-15 21:12:00,45.9,44.8,29.84,WNW,292,0.0,0.0,96,0.00,,,0.00,meteohub,2013-10-15 20:12:00,
2013-10-15 21:17:00,45.5,44.4,29.84,WNW,292,0.0,0.0,96,0.00,,,0.00,meteohub,2013-10-15 20:17:00,
2013-10-15 21:22:00,45.3,44.2,29.84,WNW,292,0.0,0.0,96,0.00,,,0.00,meteohub,2013-10-15 20:22:00,
2013-10-15 21:27:00,45.3,44.2,29.84,WNW,292,0.0,0.0,96,0.00,,,0.00,meteohub,2013-10-15 20:27:00,
2013-10-15 21:32:00,45.5,44.8,29.84,WNW,292,0.0,0.0,97,0.00,,,0.00,meteohub,2013-10-15 20:32:00,
2013-10-15 21:37:00,45.9,45.1,29.84,WNW,292,0.0,0.0,97,0.00,,,0.00,meteohub,2013-10-15 20:37:00,
2013-10-15 21:42:00,46.2,45.5,29.84,WNW,292,0.0,0.0,97,0.00,,,0.00,meteohub,2013-10-15 20:42:00,
2013-10-15 21:47:00,46.4,45.7,29.84,WNW,292,0.0,0.0,97,0.00,,,0.00,meteohub,2013-10-15 20:47:00,
2013-10-15 21:52:00,46.4,45.7,29.84,WNW,292,0.0,0.0,97,0.00,,,0.00,meteohub,2013-10-15 20:52:00,
2013-10-15 21:57:00,46.0,45.3,29.84,WNW,292,0.0,0.0,97,0.00,,,0.00,meteohub,2013-10-15 20:57:00,
2013-10-15 22:02:00,45.9,45.1,29.84,WNW,292,0.0,0.0,97,0.00,,,0.00,meteohub,2013-10-15 21:02:00,
2013-10-15 22:07:00,45.5,44.8,29.84,WNW,292,0.0,0.0,97,0.00,,,0.00,meteohub,2013-10-15 21:07:00,
2013-10-15 22:12:00,45.3,44.8,29.84,WNW,292,0.0,0.0,98,0.00,,,0.00,meteohub,2013-10-15 21:12:00,
2013-10-15 22:17:00,45.0,44.4,29.84,WNW,292,0.0,0.0,98,0.00,,,0.00,meteohub,2013-10-15 21:17:00,
2013-10-15 22:22:00,44.6,44.1,29.84,WNW,292,0.0,0.0,98,0.00,,,0.00,meteohub,2013-10-15 21:22:00,
2013-10-15 22:27:00,44.6,44.1,29.87,WNW,292,0.0,0.0,98,0.00,,,0.00,meteohub,2013-10-15 21:27:00,
2013-10-15 22:32:00,44.6,44.1,29.87,WNW,292,0.0,0.0,98,0.00,,,0.00,meteohub,2013-10-15 21:32:00,
2013-10-15 22:37:00,45.1,44.6,29.87,WNW,292,0.0,0.0,98,0.00,,,0.00,meteohub,2013-10-15 21:37:00,
2013-10-15 22:42:00,45.1,44.6,29.84,WNW,292,0.0,0.0,98,0.00,,,0.00,meteohub,2013-10-15 21:42:00,
2013-10-15 22:47:00,45.1,44.6,29.84,WNW,292,0.0,0.0,98,0.00,,,0.00,meteohub,2013-10-15 21:47:00,
2013-10-15 22:52:00,44.8,44.2,29.84,WNW,292,0.0,0.0,98,0.00,,,0.00,meteohub,2013-10-15 21:52:00,
2013-10-15 22:57:00,44.6,44.1,29.87,WNW,292,0.0,0.0,98,0.00,,,0.00,meteohub,2013-10-15 21:57:00,
2013-10-15 23:02:00,44.6,44.1,29.87,WNW,292,0.0,0.0,98,0.00,,,0.00,meteohub,2013-10-15 22:02:00,
2013-10-15 23:07:00,44.2,43.7,29.87,WNW,292,0.0,0.0,98,0.00,,,0.00,meteohub,2013-10-15 22:07:00,
2013-10-15 23:12:00,44.1,43.5,29.87,WNW,292,0.0,0.0,98,0.00,,,0.00,meteohub,2013-10-15 22:12:00,
2013-10-15 23:17:00,43.7,43.2,29.87,WNW,292,0.0,0.0,98,0.00,,,0.00,meteohub,2013-10-15 22:17:00,
2013-10-15 23:22:00,43.3,42.8,29.87,WNW,292,0.0,0.0,98,0.00,,,0.00,meteohub,2013-10-15 22:22:00,
2013-10-15 23:27:00,43.2,42.6,29.87,WNW,292,0.0,0.0,98,0.00,,,0.00,meteohub,2013-10-15 22:27:00,
2013-10-15 23:32:00,43.2,42.6,29.87,WNW,292,0.0,0.0,98,0.00,,,0.00,meteohub,2013-10-15 22:32:00,
2013-10-15 23:37:00,43.0,42.4,29.87,WNW,292,0.0,0.0,98,0.00,,,0.00,meteohub,2013-10-15 22:37:00,
2013-10-15 23:42:00,42.8,42.3,29.87,WNW,292,0.0,0.0,98,0.00,,,0.00,meteohub,2013-10-15 22:42:00,
2013-10-15 23:47:00,42.4,41.9,29.87,WNW,292,0.0,0.0,98,0.00,,,0.00,meteohub,2013-10-15 22:47:00,
2013-10-15 23:52:00,42.3,41.7,29.87,WNW,292,0.0,0.0,98,0.00,,,0.00,meteohub,2013-10-15 22:52:00,
2013-10-15 23:57:00,42.4,41.9,29.87,WNW,292,0.0,0.0,98,0.00,,,0.00,meteohub,2013-10-15 22:57:00,